createdAt,value
2018-07-08T00:00:41.570Z,18.36
2018-07-08T00:05:45.030Z,18.22
2018-07-08T00:10:54.289Z,18.18
2018-07-08T00:15:57.695Z,18.20
2018-07-08T00:21:01.185Z,18.22
2018-07-08T00:26:04.653Z,18.10
2018-07-08T00:31:08.094Z,18.03
2018-07-08T00:36:11.470Z,18.04
2018-07-08T00:41:14.905Z,17.97
2018-07-08T00:46:18.117Z,18.05
2018-07-08T00:51:21.449Z,18.17
2018-07-08T00:56:24.827Z,18.22
2018-07-08T01:01:28.112Z,18.21
2018-07-08T01:06:31.510Z,18.16
2018-07-08T01:11:34.841Z,18.17
2018-07-08T01:16:38.193Z,18.19
2018-07-08T01:21:41.540Z,18.09
2018-07-08T01:26:45.153Z,18.06
2018-07-08T01:31:48.508Z,18.00
2018-07-08T01:36:51.864Z,17.97
2018-07-08T01:41:55.177Z,17.89
2018-07-08T01:46:58.517Z,17.88
2018-07-08T01:52:02.703Z,17.90
2018-07-08T01:57:06.132Z,17.93
2018-07-08T02:02:09.506Z,17.90
2018-07-08T02:07:13.360Z,17.87
2018-07-08T02:12:17.388Z,17.86
2018-07-08T02:17:20.837Z,17.80
2018-07-08T02:22:24.314Z,17.72
2018-07-08T02:27:27.812Z,17.66
2018-07-08T02:32:31.294Z,17.58
2018-07-08T02:37:34.736Z,17.56
2018-07-08T02:42:38.177Z,17.51
2018-07-08T02:47:41.673Z,17.50
2018-07-08T02:52:45.664Z,17.45
2018-07-08T02:57:49.037Z,17.38
2018-07-08T03:02:52.352Z,17.37
2018-07-08T03:07:55.712Z,17.31
2018-07-08T03:12:59.157Z,17.33
2018-07-08T03:18:02.537Z,17.36
2018-07-08T03:23:05.892Z,17.39
2018-07-08T03:28:09.265Z,17.36
2018-07-08T03:33:12.812Z,17.39
2018-07-08T03:38:16.209Z,17.39
2018-07-08T03:43:19.673Z,17.40
2018-07-08T03:48:23.032Z,17.49
2018-07-08T03:53:26.337Z,17.50
2018-07-08T03:58:29.721Z,17.60
2018-07-08T04:03:33.028Z,17.59
2018-07-08T04:08:36.435Z,17.61
2018-07-08T04:13:40.088Z,17.64
2018-07-08T04:18:43.469Z,17.73
2018-07-08T04:23:46.808Z,17.96
2018-07-08T04:28:50.201Z,18.21
2018-07-08T04:33:53.530Z,18.37
2018-07-08T04:38:56.844Z,18.52
2018-07-08T04:44:00.157Z,18.60
2018-07-08T04:49:03.601Z,18.63
2018-07-08T04:54:06.939Z,18.86
2018-07-08T04:59:10.300Z,19.20
2018-07-08T05:04:13.676Z,19.39
2018-07-08T05:09:16.821Z,19.43
2018-07-08T05:14:20.190Z,19.49
2018-07-08T05:19:23.504Z,19.50
2018-07-08T05:24:26.750Z,19.44
2018-07-08T05:29:30.033Z,19.78
2018-07-08T05:34:33.396Z,19.66
2018-07-08T05:39:36.824Z,19.92
2018-07-08T05:44:40.217Z,20.15
2018-07-08T05:49:43.561Z,20.47
2018-07-08T05:54:46.945Z,20.52
2018-07-08T05:59:50.325Z,20.86
2018-07-08T06:04:53.789Z,21.50
2018-07-08T06:09:57.110Z,21.68
2018-07-08T06:15:00.455Z,21.78
2018-07-08T06:20:05.481Z,21.59
2018-07-08T06:25:09.151Z,21.12
2018-07-08T06:30:12.581Z,20.85
2018-07-08T06:35:15.944Z,20.76
2018-07-08T06:40:19.350Z,20.74
2018-07-08T06:45:22.697Z,20.54
2018-07-08T06:50:25.995Z,20.96
2018-07-08T06:55:29.376Z,21.13
2018-07-08T07:00:32.747Z,21.16
2018-07-08T07:05:36.133Z,21.15
2018-07-08T07:10:39.471Z,21.74
2018-07-08T07:15:42.868Z,22.31
2018-07-08T07:20:46.214Z,22.43
2018-07-08T07:25:49.574Z,22.13
2018-07-08T07:30:52.972Z,21.63
2018-07-08T07:35:56.337Z,21.68
2018-07-08T07:40:59.740Z,22.19
2018-07-08T07:46:03.298Z,22.59
2018-07-08T07:51:06.774Z,22.90
2018-07-08T07:56:10.112Z,22.53
2018-07-08T08:01:13.513Z,22.42
2018-07-08T08:06:16.913Z,22.33
2018-07-08T08:11:20.288Z,22.78
2018-07-08T08:16:23.645Z,23.36
2018-07-08T08:21:27.013Z,23.39
2018-07-08T08:26:30.456Z,23.28
2018-07-08T08:31:33.721Z,23.94
2018-07-08T08:36:37.050Z,23.54
2018-07-08T08:41:40.372Z,23.75
2018-07-08T08:46:43.734Z,24.05
2018-07-08T08:51:47.096Z,23.85
2018-07-08T08:56:50.385Z,23.90
2018-07-08T09:01:53.713Z,24.01
2018-07-08T09:06:57.052Z,24.21
2018-07-08T09:12:00.423Z,24.19
2018-07-08T09:17:03.940Z,24.30
2018-07-08T09:22:08.180Z,24.08
2018-07-08T09:27:11.528Z,24.30
2018-07-08T09:32:14.877Z,24.57
2018-07-08T09:37:18.263Z,24.77
2018-07-08T09:42:21.661Z,24.92
2018-07-08T09:47:25.037Z,24.93
2018-07-08T09:52:28.396Z,25.24
2018-07-08T09:57:31.752Z,25.13
2018-07-08T10:02:35.076Z,25.09
2018-07-08T10:07:38.413Z,25.45
2018-07-08T10:12:41.746Z,25.47
2018-07-08T10:17:45.100Z,25.52
2018-07-08T10:22:48.441Z,25.34
2018-07-08T10:28:16.217Z,25.67
2018-07-08T10:33:19.600Z,26.01
2018-07-08T10:38:22.994Z,25.94
2018-07-08T10:43:26.404Z,25.87
2018-07-08T10:48:29.815Z,26.20
2018-07-08T10:53:33.189Z,26.12
2018-07-08T10:58:36.903Z,26.00
2018-07-08T11:03:40.256Z,26.38
2018-07-08T11:08:43.666Z,26.68
2018-07-08T11:13:47.021Z,26.69
2018-07-08T11:18:50.349Z,26.94
2018-07-08T11:23:53.732Z,26.91
2018-07-08T11:28:57.081Z,26.98
2018-07-08T11:34:00.416Z,27.12
2018-07-08T11:39:04.610Z,27.19
2018-07-08T11:44:07.949Z,27.15
2018-07-08T11:49:11.281Z,27.18
2018-07-08T11:54:15.010Z,27.15
2018-07-08T11:59:18.441Z,27.21
2018-07-08T12:04:21.881Z,27.26
2018-07-08T12:09:25.283Z,27.60
2018-07-08T12:14:29.114Z,27.66
2018-07-08T12:19:32.424Z,27.82
2018-07-08T12:24:35.789Z,27.76
2018-07-08T12:29:39.167Z,27.63
2018-07-08T12:34:42.651Z,27.45
2018-07-08T12:39:46.037Z,27.46
2018-07-08T12:44:49.447Z,27.55
2018-07-08T12:49:52.684Z,27.80
2018-07-08T12:54:56.052Z,28.05
2018-07-08T12:59:59.364Z,27.89
2018-07-08T13:05:02.717Z,28.20
2018-07-08T13:10:06.114Z,28.02
2018-07-08T13:15:11.773Z,28.06
2018-07-08T13:20:15.205Z,28.15
2018-07-08T13:25:18.558Z,28.42
2018-07-08T13:30:22.006Z,28.53
2018-07-08T13:35:25.341Z,28.79
2018-07-08T13:40:28.761Z,28.88
2018-07-08T13:45:32.153Z,28.84
2018-07-08T13:50:35.487Z,28.85
2018-07-08T13:55:39.164Z,28.91
2018-07-08T14:00:42.521Z,29.17
2018-07-08T14:05:45.952Z,29.68
2018-07-08T14:10:49.272Z,29.44
2018-07-08T14:15:52.580Z,29.13
2018-07-08T14:20:55.992Z,29.31
2018-07-08T14:25:59.440Z,29.32
2018-07-08T14:31:02.846Z,29.53
2018-07-08T14:36:06.244Z,29.63
2018-07-08T14:41:09.648Z,29.82
2018-07-08T14:46:13.030Z,30.06
2018-07-08T14:51:16.506Z,30.10
2018-07-08T14:56:19.796Z,30.00
2018-07-08T15:01:23.369Z,30.13
2018-07-08T15:06:26.741Z,30.15
2018-07-08T15:11:30.724Z,29.64
2018-07-08T15:16:34.077Z,29.48
2018-07-08T15:21:37.494Z,29.91
2018-07-08T15:26:40.835Z,29.69
2018-07-08T15:31:44.307Z,29.38
2018-07-08T15:36:47.752Z,29.23
2018-07-08T15:41:51.142Z,29.57
2018-07-08T15:46:54.641Z,29.53
2018-07-08T15:51:57.976Z,29.44
2018-07-08T15:57:01.289Z,29.47
2018-07-08T16:02:04.681Z,29.36
2018-07-08T16:07:08.028Z,29.43
2018-07-08T16:12:11.488Z,29.65
2018-07-08T16:17:14.633Z,29.89
2018-07-08T16:22:17.992Z,29.74
2018-07-08T16:27:21.302Z,29.72
2018-07-08T16:32:24.705Z,29.75
2018-07-08T16:37:28.134Z,29.57
2018-07-08T16:42:31.604Z,29.20
2018-07-08T16:47:35.190Z,28.98
2018-07-08T16:52:38.702Z,29.06
2018-07-08T16:57:42.197Z,28.93
2018-07-08T17:02:45.873Z,28.81
2018-07-08T17:07:49.263Z,28.35
2018-07-08T17:12:52.741Z,28.10
2018-07-08T17:17:56.181Z,27.69
2018-07-08T17:22:59.566Z,27.47
2018-07-08T17:28:03.589Z,27.22
2018-07-08T17:33:06.983Z,27.20
2018-07-08T17:38:10.763Z,27.10
2018-07-08T17:43:14.090Z,26.84
2018-07-08T17:48:17.429Z,26.79
2018-07-08T17:53:20.774Z,26.73
2018-07-08T17:58:24.666Z,26.47
2018-07-08T18:03:28.044Z,26.33
2018-07-08T18:08:33.018Z,26.23
2018-07-08T18:13:36.468Z,26.04
2018-07-08T18:18:39.853Z,25.67
2018-07-08T18:23:43.201Z,25.74
2018-07-08T18:28:46.596Z,25.72
2018-07-08T18:33:50.065Z,25.57
2018-07-08T18:38:54.477Z,25.28
2018-07-08T18:43:57.802Z,25.22
2018-07-08T18:49:02.070Z,25.16
2018-07-08T18:54:05.654Z,24.99
2018-07-08T18:59:09.275Z,24.74
2018-07-08T19:04:12.702Z,24.60
2018-07-08T19:09:16.093Z,24.42
2018-07-08T19:14:19.441Z,24.28
2018-07-08T19:19:22.764Z,24.08
2018-07-08T19:24:26.182Z,23.96
2018-07-08T19:29:29.629Z,23.73
2018-07-08T19:34:33.008Z,23.68
2018-07-08T19:39:36.405Z,23.56
2018-07-08T19:44:40.172Z,23.36
2018-07-08T19:49:43.573Z,23.16
2018-07-08T19:54:47.784Z,22.99
2018-07-08T19:59:51.364Z,22.80
2018-07-08T20:04:54.825Z,22.80
2018-07-08T20:09:58.256Z,22.76
2018-07-08T20:15:01.978Z,22.59
2018-07-08T20:20:07.433Z,22.44
2018-07-08T20:25:12.801Z,22.41
2018-07-08T20:30:16.161Z,22.25
2018-07-08T20:35:19.597Z,22.08
2018-07-08T20:40:22.977Z,21.94
2018-07-08T20:45:26.309Z,21.83
2018-07-08T20:50:30.616Z,21.63
2018-07-08T20:55:34.116Z,21.49
2018-07-08T21:00:37.472Z,21.34
2018-07-08T21:05:41.224Z,21.22
2018-07-08T21:10:44.619Z,21.06
2018-07-08T21:15:47.993Z,20.95
2018-07-08T21:20:51.381Z,20.87
2018-07-08T21:25:54.845Z,20.97
2018-07-08T21:30:58.209Z,20.85
2018-07-08T21:36:01.622Z,20.56
2018-07-08T21:41:05.300Z,20.31
2018-07-08T21:46:08.653Z,20.23
2018-07-08T21:51:12.967Z,20.17
2018-07-08T21:56:16.336Z,20.19
2018-07-08T22:01:20.990Z,20.05
2018-07-08T22:06:24.326Z,19.96
2018-07-08T22:11:27.670Z,19.81
2018-07-08T22:16:30.926Z,19.80
2018-07-08T22:21:34.330Z,19.69
2018-07-08T22:26:37.786Z,19.53
2018-07-08T22:31:43.497Z,19.46
2018-07-08T22:36:47.359Z,19.38
2018-07-08T22:41:50.792Z,19.36
2018-07-08T22:46:54.240Z,19.28
2018-07-08T22:51:57.656Z,19.21
2018-07-08T22:57:01.090Z,19.16
2018-07-08T23:02:21.576Z,19.10
2018-07-08T23:07:24.902Z,19.00
2018-07-08T23:12:28.330Z,19.17
2018-07-08T23:17:32.037Z,19.18
2018-07-08T23:22:52.571Z,19.21
2018-07-08T23:27:56.028Z,19.08
2018-07-08T23:32:59.443Z,19.02
2018-07-08T23:38:02.863Z,18.83
2018-07-08T23:43:06.853Z,18.59
2018-07-08T23:48:10.228Z,18.73
2018-07-08T23:53:13.644Z,18.86
2018-07-08T23:58:16.998Z,18.83
